Time;durP1;ratioP1;P1;durP2;ratioP2;P2;SDS_P1;SDS_P2;PMS_P1;PMS_P2;Temp;Humidity;BMP_temperature;BMP_pressure;BME280_temperature;BME280_humidity;BME280_pressure;Samples;Min_cycle;Max_cycle;Signal;HPM_P1;HPM_P2
2021/12/06 00:01:31;;;;;;;70.68;33.33;;;;;;;2.67;82.43;100072.31;5012506;28;20096;-75
2021/12/06 00:04:09;;;;;;;67.72;32.42;;;;;;;2.58;83.00;100063.50;5009162;28;20042;-75
2021/12/06 00:06:37;;;;;;;64.10;31.42;;;;;;;2.58;83.35;100065.22;4994572;28;20044;-74
2021/12/06 00:09:07;;;;;;;63.85;30.67;;;;;;;2.52;82.83;100066.00;5012261;28;20103;-75
2021/12/06 00:11:34;;;;;;;65.53;31.65;;;;;;;2.50;82.87;100069.41;5012379;28;20531;-75
2021/12/06 00:14:01;;;;;;;71.05;33.53;;;;;;;2.29;83.77;100075.97;5012274;28;20092;-75
2021/12/06 00:16:27;;;;;;;62.03;30.15;;;;;;;2.20;84.46;100075.75;5011880;28;20038;-75
2021/12/06 00:18:52;;;;;;;72.65;32.05;;;;;;;2.12;84.69;100074.72;5012210;28;20045;-75
2021/12/06 00:21:19;;;;;;;71.15;33.35;;;;;;;2.15;85.43;100072.22;5012138;28;20030;-75
2021/12/06 00:23:45;;;;;;;67.55;33.58;;;;;;;2.17;85.25;100078.31;5012053;28;20030;-74
2021/12/06 00:26:10;;;;;;;69.93;31.70;;;;;;;2.29;84.79;100083.78;5011796;28;20559;-74
2021/12/06 00:28:37;;;;;;;62.58;30.70;;;;;;;2.46;84.86;100083.22;5012007;28;20048;-75
2021/12/06 00:31:03;;;;;;;74.13;32.72;;;;;;;2.52;84.10;100092.03;5010589;28;20038;-74
2021/12/06 00:33:29;;;;;;;65.47;28.33;;;;;;;2.48;83.38;100102.38;5011792;28;20081;-75
2021/12/06 00:36:03;;;;;;;66.25;29.50;;;;;;;2.34;83.42;100097.75;5009117;28;20053;-74
2021/12/06 00:38:29;;;;;;;65.45;28.85;;;;;;;2.26;84.17;100108.88;5011945;28;20088;-74
2021/12/06 00:40:55;;;;;;;59.50;28.52;;;;;;;2.24;83.67;100110.56;5011850;28;20037;-75
2021/12/06 00:43:20;;;;;;;60.40;27.45;;;;;;;2.15;84.24;100109.53;5011674;28;20033;-75
2021/12/06 00:45:46;;;;;;;59.75;28.05;;;;;;;2.13;84.09;100121.63;5011329;28;20666;-75
2021/12/06 00:48:12;;;;;;;67.45;31.27;;;;;;;2.03;84.68;100126.63;5002465;28;20033;-74
2021/12/06 00:50:40;;;;;;;60.22;28.17;;;;;;;2.09;85.01;100130.22;5011611;28;20580;-75
2021/12/06 00:53:06;;;;;;;68.65;32.08;;;;;;;2.02;85.06;100132.66;5010362;28;20037;-75
2021/12/06 00:55:32;;;;;;;69.68;30.05;;;;;;;2.02;85.22;100136.16;5010058;28;20040;-75
2021/12/06 00:57:58;;;;;;;79.97;33.63;;;;;;;2.06;85.11;100135.34;4990114;28;20037;-75
2021/12/06 01:00:35;;;;;;;65.88;29.40;;;;;;;2.08;85.39;100133.66;5010207;28;20480;-75
2021/12/06 01:03:04;;;;;;;62.38;27.85;;;;;;;2.23;85.28;100132.22;4990861;28;20060;-74
2021/12/06 01:05:30;;;;;;;57.80;26.85;;;;;;;2.17;84.48;100136.50;5011227;28;20044;-74
2021/12/06 01:07:55;;;;;;;60.83;28.15;;;;;;;2.13;84.31;100134.66;5010910;28;20037;-74
2021/12/06 01:10:23;;;;;;;51.63;26.35;;;;;;;2.13;84.23;100137.25;5010036;28;20069;-75
2021/12/06 01:12:48;;;;;;;63.33;27.95;;;;;;;2.09;84.11;100137.16;5006190;28;20042;-75
2021/12/06 01:15:14;;;;;;;54.33;26.90;;;;;;;2.11;84.73;100135.47;5010729;28;20149;-74
2021/12/06 01:17:40;;;;;;;62.00;26.70;;;;;;;2.16;84.44;100139.03;5010089;28;20038;-74
2021/12/06 01:20:10;;;;;;;60.78;25.58;;;;;;;2.12;84.38;100140.72;4993762;28;20507;-75
2021/12/06 01:22:47;;;;;;;63.80;26.90;;;;;;;2.11;84.60;100141.53;4993633;28;20115;-74
2021/12/06 01:30:58;;;;;;;53.05;24.95;;;;;;;2.01;84.93;100155.19;4991255;28;20026;-74
2021/12/06 01:41:43;;;;;;;46.45;23.63;;;;;;;1.75;85.84;100147.66;5010061;28;20040;-74
2021/12/06 01:44:17;;;;;;;54.25;26.35;;;;;;;1.71;85.94;100161.47;4997228;28;20201;-74
2021/12/06 01:47:01;;;;;;;50.22;24.80;;;;;;;1.79;86.10;100169.47;5010962;28;20042;-74
2021/12/06 01:49:30;;;;;;;45.35;23.92;;;;;;;1.69;86.36;100163.16;5013727;28;20033;-74
2021/12/06 01:51:59;;;;;;;54.28;26.55;;;;;;;1.68;86.16;100168.34;5005539;28;20619;-74
2021/12/06 01:54:27;;;;;;;48.65;25.30;;;;;;;1.67;86.17;100162.22;5013268;28;20451;-75
2021/12/06 01:56:53;;;;;;;56.00;28.60;;;;;;;1.62;86.20;100168.16;5005540;28;20072;-74
2021/12/06 01:59:22;;;;;;;51.20;25.67;;;;;;;1.59;87.03;100173.31;5014886;28;20065;-74
2021/12/06 02:01:48;;;;;;;48.40;27.05;;;;;;;1.52;86.92;100175.75;4997142;28;20030;-75
2021/12/06 02:04:14;;;;;;;46.53;25.95;;;;;;;1.52;86.99;100177.50;4996999;28;20080;-74
2021/12/06 02:06:42;;;;;;;59.33;30.98;;;;;;;1.42;87.60;100175.50;4989127;28;20081;-74
2021/12/06 02:09:11;;;;;;;52.13;29.83;;;;;;;1.49;87.64;100172.19;4996816;28;20137;-75
2021/12/06 02:11:39;;;;;;;50.03;28.50;;;;;;;1.47;87.54;100179.09;5013249;28;20492;-75
2021/12/06 02:14:26;;;;;;;55.42;28.20;;;;;;;1.45;87.35;100175.56;5013097;28;20084;-74
2021/12/06 02:17:05;;;;;;;47.15;26.42;;;;;;;1.47;87.91;100171.28;4991406;28;20496;-74
2021/12/06 02:19:35;;;;;;;54.63;28.67;;;;;;;1.50;87.46;100180.03;5010447;28;20108;-74
2021/12/06 02:22:01;;;;;;;52.25;27.33;;;;;;;1.52;87.22;100183.56;5005177;28;20104;-74
2021/12/06 02:24:30;;;;;;;57.92;29.63;;;;;;;1.54;87.31;100187.06;5004706;28;20044;-74
2021/12/06 02:26:57;;;;;;;54.53;29.95;;;;;;;1.60;87.17;100188.06;5013026;28;20093;-75
2021/12/06 02:29:23;;;;;;;58.45;30.80;;;;;;;1.61;86.94;100193.31;5004903;28;20026;-75
2021/12/06 02:31:48;;;;;;;51.08;28.05;;;;;;;1.56;86.55;100188.84;5012954;28;20034;-75
2021/12/06 02:34:14;;;;;;;56.78;28.98;;;;;;;1.58;86.77;100190.63;5012725;28;20040;-75
2021/12/06 02:36:40;;;;;;;62.50;32.88;;;;;;;1.54;87.41;100191.38;5012625;28;20535;-75
2021/12/06 02:39:09;;;;;;;58.08;30.70;;;;;;;1.51;87.03;100196.50;5014083;28;20034;-75
2021/12/06 02:41:35;;;;;;;51.10;27.80;;;;;;;1.56;86.85;100194.91;5008614;28;20040;-74
2021/12/06 02:44:06;;;;;;;52.72;28.17;;;;;;;1.55;87.52;100198.38;4995406;28;20030;-75
2021/12/06 02:46:32;;;;;;;51.58;28.90;;;;;;;1.50;86.67;100203.44;4996167;28;20030;-75
2021/12/06 02:48:57;;;;;;;56.95;30.48;;;;;;;1.39;87.53;100209.19;5012530;28;20029;-75
2021/12/06 02:51:25;;;;;;;54.40;30.75;;;;;;;1.44;87.78;100205.00;5011501;28;20503;-75
2021/12/06 02:53:51;;;;;;;56.30;30.30;;;;;;;1.50;87.73;100216.44;5013650;28;20038;-76
2021/12/06 02:56:50;;;;;;;52.97;29.58;;;;;;;1.51;87.48;100209.53;5013497;28;20036;-75
2021/12/06 02:59:09;;;;;;;60.22;32.25;;;;;;;1.46;87.39;100208.53;4986027;28;20034;-75
2021/12/06 03:01:40;;;;;;;58.60;30.50;;;;;;;1.57;88.01;100222.66;5012246;28;20125;-75
2021/12/06 03:04:06;;;;;;;55.47;30.90;;;;;;;1.64;87.79;100222.00;5015404;28;20030;-75
2021/12/06 03:06:33;;;;;;;52.28;31.27;;;;;;;1.67;87.61;100221.19;5012094;28;20041;-75
2021/12/06 03:09:21;;;;;;;53.85;30.75;;;;;;;1.70;87.20;100229.06;5004189;28;20042;-75
2021/12/06 03:11:58;;;;;;;57.72;32.00;;;;;;;1.70;87.53;100229.97;5009034;28;20076;-75
2021/12/06 03:14:29;;;;;;;63.33;31.45;;;;;;;1.62;87.35;100239.28;5012057;28;20428;-75
2021/12/06 03:17:01;;;;;;;54.95;27.50;;;;;;;1.65;87.97;100235.88;5014524;28;20504;-75
2021/12/06 03:19:27;;;;;;;60.13;29.65;;;;;;;1.63;87.88;100243.66;5012045;28;20025;-75
2021/12/06 03:21:53;;;;;;;59.35;31.48;;;;;;;1.57;87.86;100238.28;5011929;28;20037;-75
2021/12/06 03:24:21;;;;;;;52.50;29.42;;;;;;;1.66;87.73;100241.13;4995285;28;20129;-74
2021/12/06 03:26:48;;;;;;;60.90;32.05;;;;;;;1.74;87.72;100241.31;4987719;28;20026;-75
2021/12/06 03:29:14;;;;;;;57.15;30.15;;;;;;;1.74;87.57;100236.13;5011800;28;20037;-75
2021/12/06 03:31:41;;;;;;;59.53;31.80;;;;;;;1.74;87.42;100239.59;5011789;28;20037;-75
2021/12/06 03:34:09;;;;;;;52.03;28.05;;;;;;;1.76;87.00;100239.63;5011622;28;20038;-75
2021/12/06 03:36:38;;;;;;;48.95;27.40;;;;;;;1.70;86.89;100239.47;5003320;28;20148;-74
2021/12/06 03:39:11;;;;;;;46.70;25.70;;;;;;;1.80;87.44;100245.78;5011540;28;20434;-76
2021/12/06 03:41:37;;;;;;;47.00;27.70;;;;;;;1.81;87.17;100248.44;5011611;28;20033;-75
2021/12/06 03:44:04;;;;;;;45.00;25.70;;;;;;;1.87;86.64;100247.72;5011458;28;20120;-75
2021/12/06 03:46:33;;;;;;;50.90;28.67;;;;;;;1.85;86.54;100245.06;5011377;28;20030;-75
2021/12/06 03:48:58;;;;;;;40.85;25.27;;;;;;;1.90;86.55;100248.66;5011671;28;20396;-75
2021/12/06 03:51:24;;;;;;;44.75;23.90;;;;;;;1.94;86.37;100253.09;5012961;28;20033;-76
2021/12/06 03:53:52;;;;;;;47.92;29.17;;;;;;;1.98;85.98;100259.25;5003322;28;20041;-74
2021/12/06 03:56:19;;;;;;;46.17;27.20;;;;;;;1.96;85.75;100263.53;5010907;28;20049;-75
2021/12/06 03:58:47;;;;;;;42.05;25.20;;;;;;;1.91;85.81;100272.94;5011322;28;20084;-76
2021/12/06 04:01:13;;;;;;;43.15;25.30;;;;;;;1.82;85.81;100262.31;5003314;28;20053;-75
2021/12/06 04:03:43;;;;;;;42.80;24.67;;;;;;;1.83;86.48;100266.69;5010960;28;20447;-75
2021/12/06 04:06:11;;;;;;;50.05;27.90;;;;;;;1.88;86.28;100276.34;4999479;28;20037;-75
2021/12/06 04:08:37;;;;;;;44.10;25.65;;;;;;;1.81;85.98;100279.66;5009290;28;20412;-75
2021/12/06 04:11:04;;;;;;;47.40;27.25;;;;;;;1.68;86.25;100275.88;5011032;28;20089;-75
2021/12/06 04:13:33;;;;;;;41.75;24.60;;;;;;;1.67;86.93;100274.09;5010817;28;20372;-76
2021/12/06 04:16:00;;;;;;;39.45;24.80;;;;;;;1.64;86.75;100270.53;5010492;28;20430;-76
2021/12/06 04:18:26;;;;;;;40.08;23.63;;;;;;;1.73;86.94;100271.66;5010866;28;20087;-76
2021/12/06 04:20:51;;;;;;;43.53;25.17;;;;;;;1.86;86.88;100277.16;5012186;28;20439;-75
2021/12/06 04:23:20;;;;;;;37.83;23.27;;;;;;;1.80;85.95;100277.00;5010356;28;20381;-76
2021/12/06 04:25:48;;;;;;;39.58;25.00;;;;;;;1.71;86.47;100286.34;5002297;28;20372;-75
2021/12/06 04:28:15;;;;;;;39.25;22.90;;;;;;;1.72;86.63;100284.63;4993987;28;20029;-76
2021/12/06 04:30:42;;;;;;;40.10;23.40;;;;;;;1.74;86.76;100286.41;5011342;28;20068;-75
2021/12/06 04:33:08;;;;;;;42.35;24.55;;;;;;;1.80;86.78;100288.28;4994161;28;20507;-75
2021/12/06 04:35:36;;;;;;;38.92;23.75;;;;;;;1.77;86.34;100292.56;5011554;28;20022;-75
2021/12/06 04:38:04;;;;;;;42.58;25.23;;;;;;;1.68;86.54;100293.22;4983000;28;20496;-75
2021/12/06 04:40:30;;;;;;;42.47;25.17;;;;;;;1.73;86.69;100296.81;4994128;28;20065;-75
2021/12/06 04:42:56;;;;;;;38.38;23.50;;;;;;;1.73;86.70;100297.69;5003196;28;20080;-75
2021/12/06 04:45:23;;;;;;;38.05;22.52;;;;;;;1.78;86.57;100302.09;5010679;28;20132;-75
2021/12/06 04:47:50;;;;;;;38.50;23.13;;;;;;;1.74;86.49;100302.03;5013509;28;20480;-75
2021/12/06 04:50:18;;;;;;;39.50;25.33;;;;;;;1.75;86.57;100301.19;5013250;28;20053;-74
2021/12/06 04:52:45;;;;;;;36.47;21.65;;;;;;;1.74;86.03;100302.03;5008372;28;20080;-75
2021/12/06 04:55:42;;;;;;;39.80;23.40;;;;;;;1.71;86.13;100304.56;5006913;28;20026;-75
2021/12/06 04:58:13;;;;;;;38.42;22.25;;;;;;;1.75;86.55;100308.97;4988914;28;20045;-76
2021/12/06 05:00:48;;;;;;;36.45;21.67;;;;;;;1.81;86.50;100304.78;5011695;28;20030;-76
2021/12/06 05:03:16;;;;;;;43.65;26.65;;;;;;;1.87;86.24;100304.97;5006971;28;20037;-76
2021/12/06 05:05:55;;;;;;;41.85;24.23;;;;;;;1.81;85.93;100316.09;4993605;28;20117;-76
2021/12/06 05:08:36;;;;;;;40.15;24.90;;;;;;;1.83;86.35;100313.50;5009728;28;20033;-76
2021/12/06 05:11:03;;;;;;;38.55;22.52;;;;;;;1.80;86.29;100318.66;5010131;28;20396;-76
2021/12/06 05:13:30;;;;;;;36.72;20.85;;;;;;;1.87;86.11;100326.66;5010058;28;20436;-75
2021/12/06 05:15:56;;;;;;;38.38;23.27;;;;;;;1.75;86.14;100323.72;5001130;28;20030;-76
2021/12/06 05:18:22;;;;;;;36.60;23.23;;;;;;;1.71;86.53;100329.69;5010186;28;20052;-77
2021/12/06 05:20:48;;;;;;;38.60;24.70;;;;;;;1.68;86.35;100335.72;4993880;28;20030;-76
2021/12/06 05:23:14;;;;;;;41.35;24.15;;;;;;;1.71;86.91;100340.13;5009387;28;20038;-76
2021/12/06 05:25:40;;;;;;;37.65;24.65;;;;;;;1.76;86.41;100343.72;5009771;28;20045;-76
2021/12/06 05:28:05;;;;;;;39.78;24.90;;;;;;;1.77;85.96;100339.38;5002212;28;20403;-76
2021/12/06 05:30:36;;;;;;;41.22;23.95;;;;;;;1.67;86.60;100349.53;5009532;28;20045;-76
2021/12/06 05:33:02;;;;;;;35.90;22.58;;;;;;;1.73;86.39;100349.72;5009428;28;20038;-76
2021/12/06 05:35:28;;;;;;;34.63;20.58;;;;;;;1.83;85.99;100356.03;5009904;28;20065;-76
2021/12/06 05:37:57;;;;;;;34.83;21.75;;;;;;;1.75;85.91;100361.03;5011141;28;20072;-76
2021/12/06 05:40:34;;;;;;;37.42;23.77;;;;;;;1.74;86.09;100361.88;4994101;28;20096;-76
2021/12/06 05:43:01;;;;;;;35.90;22.00;;;;;;;1.73;85.84;100364.47;5010691;28;20164;-76
2021/12/06 05:45:31;;;;;;;38.42;24.73;;;;;;;1.66;85.99;100368.59;5009974;28;20044;-77
2021/12/06 05:47:56;;;;;;;32.95;21.83;;;;;;;1.74;86.03;100372.28;5009916;28;20540;-76
2021/12/06 05:50:23;;;;;;;35.92;21.95;;;;;;;1.64;85.83;100380.69;5010644;28;20034;-76
2021/12/06 05:52:53;;;;;;;36.65;23.75;;;;;;;1.56;86.56;100379.59;5010518;28;20069;-76
2021/12/06 05:55:19;;;;;;;35.05;21.40;;;;;;;1.61;86.54;100385.81;5011808;28;20069;-76
2021/12/06 05:57:45;;;;;;;42.03;24.25;;;;;;;1.70;85.99;100380.88;5010739;28;20084;-76
2021/12/06 06:00:14;;;;;;;43.13;25.80;;;;;;;1.77;86.22;100381.91;5004354;28;20030;-76
2021/12/06 06:02:40;;;;;;;40.35;24.83;;;;;;;1.80;85.44;100378.50;5009451;28;20120;-76
2021/12/06 06:05:06;;;;;;;39.47;24.95;;;;;;;1.82;85.80;100388.09;5008145;28;20583;-76
2021/12/06 06:07:31;;;;;;;42.42;26.80;;;;;;;1.83;85.87;100386.38;5010816;28;20038;-76
2021/12/06 06:09:57;;;;;;;77.47;45.78;;;;;;;1.94;85.73;100390.16;5009345;28;20044;-76
2021/12/06 06:12:22;;;;;;;44.20;26.38;;;;;;;1.99;85.68;100398.94;5008862;28;20079;-76
2021/12/06 06:14:47;;;;;;;39.08;25.10;;;;;;;2.06;84.98;100403.47;5009544;28;20393;-76
2021/12/06 06:17:15;;;;;;;38.40;24.05;;;;;;;2.12;84.97;100403.66;5009415;28;20072;-76
2021/12/06 06:19:49;;;;;;;43.35;24.25;;;;;;;2.10;84.52;100414.88;4992563;28;20040;-76
2021/12/06 06:22:15;;;;;;;44.97;27.70;;;;;;;2.05;84.04;100417.34;5010006;28;20033;-76
2021/12/06 06:24:40;;;;;;;43.03;25.60;;;;;;;1.94;84.88;100416.19;5009646;28;20045;-76
2021/12/06 06:27:07;;;;;;;41.95;26.42;;;;;;;1.96;85.13;100423.22;5012689;28;20038;-76
2021/12/06 06:29:33;;;;;;;41.65;24.80;;;;;;;1.99;85.08;100424.97;5013299;28;20399;-76
2021/12/06 06:31:58;;;;;;;45.10;28.00;;;;;;;1.98;84.76;100428.44;5013424;28;20096;-76
2021/12/06 06:34:24;;;;;;;44.25;27.23;;;;;;;2.01;84.87;100430.25;5013655;28;20121;-76
2021/12/06 06:36:49;;;;;;;43.58;28.42;;;;;;;2.04;84.70;100431.19;5013907;28;20038;-76
2021/12/06 06:39:19;;;;;;;40.30;24.77;;;;;;;1.96;84.52;100435.31;5014130;28;20052;-76
2021/12/06 06:41:45;;;;;;;52.22;31.92;;;;;;;1.89;84.84;100433.41;5013908;28;20125;-76
2021/12/06 06:44:11;;;;;;;42.92;26.45;;;;;;;1.96;84.46;100436.22;5013737;28;20145;-76
2021/12/06 06:46:36;;;;;;;44.10;26.52;;;;;;;2.01;84.84;100440.66;5012532;28;20050;-76
2021/12/06 06:49:02;;;;;;;45.45;27.92;;;;;;;2.04;84.48;100444.19;5013473;28;20037;-76
2021/12/06 06:51:28;;;;;;;41.15;26.65;;;;;;;2.02;83.59;100445.91;5013367;28;20038;-76
2021/12/06 06:53:54;;;;;;;45.00;26.08;;;;;;;1.98;84.28;100454.47;5013335;28;20496;-77
2021/12/06 06:56:19;;;;;;;38.80;25.35;;;;;;;2.02;83.83;100456.31;5013138;28;20487;-76
2021/12/06 06:58:45;;;;;;;43.95;27.98;;;;;;;2.05;84.16;100458.13;5012525;28;20038;-76
2021/12/06 07:01:10;;;;;;;46.80;28.95;;;;;;;2.02;83.55;100453.72;5011932;28;20026;-76
2021/12/06 07:03:36;;;;;;;50.42;31.25;;;;;;;1.91;83.20;100453.44;5012402;28;20492;-76
2021/12/06 07:06:03;;;;;;;52.55;30.33;;;;;;;1.83;83.62;100459.25;5012063;28;20077;-75
2021/12/06 07:08:29;;;;;;;47.58;29.67;;;;;;;1.72;83.29;100461.53;5008479;28;20177;-76
2021/12/06 07:10:55;;;;;;;47.03;29.30;;;;;;;1.67;83.81;100461.41;5012214;28;20559;-76
2021/12/06 07:13:22;;;;;;;45.42;28.23;;;;;;;1.61;84.01;100469.03;5012401;28;20042;-76
2021/12/06 07:15:48;;;;;;;47.97;29.50;;;;;;;1.66;83.98;100467.47;5003881;28;20044;-76
2021/12/06 07:18:14;;;;;;;51.60;31.25;;;;;;;1.63;84.02;100469.97;5013306;28;20042;-76
2021/12/06 07:20:39;;;;;;;47.50;29.23;;;;;;;1.63;84.49;100471.72;5013286;28;20114;-76
2021/12/06 07:23:04;;;;;;;48.85;28.90;;;;;;;1.63;83.87;100476.91;5012967;28;20052;-76
2021/12/06 07:25:30;;;;;;;45.95;28.45;;;;;;;1.62;84.62;100485.53;5012470;28;20030;-76
2021/12/06 07:27:58;;;;;;;53.30;31.83;;;;;;;1.65;83.76;100493.41;5013069;28;20034;-76
2021/12/06 07:30:23;;;;;;;52.38;31.45;;;;;;;1.67;83.90;100491.75;5012984;28;20034;-76
2021/12/06 07:32:50;;;;;;;49.97;32.22;;;;;;;1.64;84.53;100494.25;5012915;28;20137;-76
2021/12/06 07:35:16;;;;;;;50.22;29.27;;;;;;;1.77;84.07;100501.59;5012676;28;20523;-76
2021/12/06 07:37:42;;;;;;;55.83;32.50;;;;;;;1.68;83.53;100497.00;5012273;28;20042;-76
2021/12/06 07:40:09;;;;;;;51.55;31.63;;;;;;;1.73;83.54;100505.84;5012749;28;20030;-76
2021/12/06 07:42:35;;;;;;;51.08;31.35;;;;;;;1.63;83.50;100500.31;5010247;28;20448;-75
2021/12/06 07:45:04;;;;;;;49.80;30.75;;;;;;;1.62;83.43;100496.81;5011533;28;20026;-76
2021/12/06 07:47:29;;;;;;;53.95;32.70;;;;;;;1.56;83.28;100501.84;5009344;28;20398;-77
2021/12/06 07:49:54;;;;;;;53.65;33.28;;;;;;;1.62;83.16;100507.22;5011788;28;20030;-78
2021/12/06 07:52:20;;;;;;;48.72;31.15;;;;;;;1.63;83.22;100506.41;5010918;28;20061;-76
2021/12/06 07:54:46;;;;;;;45.78;30.00;;;;;;;1.66;82.98;100509.09;5012326;28;20054;-77
2021/12/06 07:57:12;;;;;;;48.95;29.33;;;;;;;1.74;83.06;100504.97;5011224;28;20120;-76
2021/12/06 07:59:38;;;;;;;50.92;31.73;;;;;;;1.81;82.42;100516.47;5012216;28;20041;-76
2021/12/06 08:02:05;;;;;;;52.05;32.45;;;;;;;1.82;82.01;100520.81;5009953;28;20084;-76
2021/12/06 08:04:31;;;;;;;46.40;29.98;;;;;;;1.90;82.66;100529.72;5010225;28;20427;-76
2021/12/06 08:06:56;;;;;;;49.83;33.38;;;;;;;1.99;82.35;100529.09;5010229;28;20037;-76
2021/12/06 08:09:21;;;;;;;51.80;32.17;;;;;;;1.94;82.01;100542.00;5011690;28;20033;-76
2021/12/06 08:11:47;;;;;;;49.25;30.92;;;;;;;1.92;82.27;100540.19;5012258;28;20046;-77
2021/12/06 08:14:12;;;;;;;53.83;33.03;;;;;;;1.99;81.82;100534.31;5012078;28;20540;-76
2021/12/06 08:16:43;;;;;;;50.50;31.63;;;;;;;2.02;81.93;100533.50;5011917;28;20045;-76
2021/12/06 08:19:09;;;;;;;49.38;30.98;;;;;;;1.94;81.25;100535.94;5012181;28;20048;-76
2021/12/06 08:21:34;;;;;;;47.47;30.55;;;;;;;1.98;81.38;100527.34;5011924;28;20033;-76
2021/12/06 08:24:02;;;;;;;48.83;30.00;;;;;;;2.06;81.42;100530.16;5011904;28;20121;-77
2021/12/06 08:26:31;;;;;;;47.72;30.35;;;;;;;2.13;81.59;100540.81;5011850;28;20040;-77
2021/12/06 08:28:58;;;;;;;50.97;31.70;;;;;;;2.13;80.88;100538.19;5012063;28;20128;-77
2021/12/06 08:31:24;;;;;;;46.67;29.10;;;;;;;2.16;80.49;100540.88;5011921;28;20026;-77
2021/12/06 08:33:51;;;;;;;45.17;29.02;;;;;;;2.16;80.81;100548.69;5011782;28;20465;-76
2021/12/06 08:36:17;;;;;;;52.72;32.75;;;;;;;2.28;80.64;100542.03;5010395;28;20104;-76
2021/12/06 08:38:44;;;;;;;51.47;31.30;;;;;;;2.23;80.18;100549.75;5011919;28;20030;-77
2021/12/06 08:41:14;;;;;;;48.17;31.30;;;;;;;2.19;80.13;100548.78;5011841;28;20042;-77
2021/12/06 08:43:41;;;;;;;48.92;31.45;;;;;;;2.13;80.19;100540.81;5011601;28;20050;-76
2021/12/06 08:46:19;;;;;;;47.45;29.33;;;;;;;2.13;80.36;100552.94;5011515;28;20044;-77
2021/12/06 08:48:46;;;;;;;46.95;29.85;;;;;;;2.16;80.03;100550.41;5007437;28;20064;-77
2021/12/06 08:51:17;;;;;;;44.65;28.55;;;;;;;2.27;80.34;100558.53;5010837;28;20384;-77
2021/12/06 08:53:44;;;;;;;46.92;29.98;;;;;;;2.36;79.72;100562.28;5011463;28;20041;-76
2021/12/06 08:56:10;;;;;;;48.92;31.08;;;;;;;2.37;79.61;100565.75;5011332;28;20042;-76
2021/12/06 08:58:35;;;;;;;42.50;28.80;;;;;;;2.32;79.31;100564.75;5011250;28;20045;-77
2021/12/06 09:01:02;;;;;;;50.13;32.28;;;;;;;2.31;79.85;100569.09;5011516;28;20140;-77
2021/12/06 09:03:27;;;;;;;53.65;32.75;;;;;;;2.30;80.22;100564.69;5009573;28;20108;-77
2021/12/06 09:05:55;;;;;;;52.83;32.28;;;;;;;2.37;79.35;100581.38;5006230;28;20114;-77
2021/12/06 09:08:21;;;;;;;52.67;34.33;;;;;;;2.30;79.83;100574.22;5010688;28;20037;-77
2021/12/06 09:10:50;;;;;;;48.67;30.48;;;;;;;2.41;80.12;100583.22;5009914;28;20049;-77
2021/12/06 09:13:17;;;;;;;47.72;30.20;;;;;;;2.28;79.53;100579.41;5011294;28;20552;-76
2021/12/06 09:15:42;;;;;;;51.33;31.95;;;;;;;2.19;80.04;100585.22;5011022;28;20120;-76
2021/12/06 09:18:08;;;;;;;48.95;31.63;;;;;;;2.23;80.67;100593.13;5010983;28;20121;-77
2021/12/06 09:20:36;;;;;;;49.53;31.13;;;;;;;2.33;80.24;100587.34;5011334;28;20095;-76
2021/12/06 09:23:04;;;;;;;46.53;30.65;;;;;;;2.38;80.30;100591.88;5010206;28;20042;-78
2021/12/06 09:25:30;;;;;;;50.25;32.60;;;;;;;2.41;79.61;100591.94;5010607;28;20084;-76
2021/12/06 09:27:56;;;;;;;50.50;32.55;;;;;;;2.45;79.41;100598.09;5011102;28;20062;-76
2021/12/06 09:30:26;;;;;;;48.67;29.58;;;;;;;2.43;79.34;100594.56;5010968;28;20040;-76
2021/12/06 09:32:54;;;;;;;50.58;32.03;;;;;;;2.40;79.74;100599.69;5010599;28;20130;-76
2021/12/06 09:35:25;;;;;;;50.85;31.90;;;;;;;2.41;79.38;100602.34;5008612;28;20037;-77
2021/12/06 09:37:51;;;;;;;56.60;33.88;;;;;;;2.40;79.13;100604.91;5009112;28;20064;-76
2021/12/06 09:40:17;;;;;;;50.42;32.95;;;;;;;2.41;79.34;100601.44;5010304;28;20443;-77
2021/12/06 09:42:45;;;;;;;45.38;28.60;;;;;;;2.54;79.61;100603.59;5010614;28;20034;-76
2021/12/06 09:45:14;;;;;;;58.67;35.10;;;;;;;2.49;78.77;100602.56;5007082;28;20446;-77
2021/12/06 09:47:48;;;;;;;55.97;33.42;;;;;;;2.50;78.83;100612.16;5007768;28;20423;-76
2021/12/06 09:50:14;;;;;;;47.83;29.23;;;;;;;2.34;78.26;100604.75;5010603;28;20041;-76
2021/12/06 09:52:39;;;;;;;58.17;35.05;;;;;;;2.21;79.39;100607.84;5010962;28;20500;-77
2021/12/06 09:55:05;;;;;;;53.55;33.47;;;;;;;2.12;79.73;100596.31;5010716;28;20038;-77
2021/12/06 09:57:30;;;;;;;50.83;30.70;;;;;;;2.26;79.66;100596.72;5011066;28;20049;-77
2021/12/06 09:59:56;;;;;;;50.65;32.60;;;;;;;2.34;79.77;100592.59;5011050;28;20030;-76
2021/12/06 10:02:22;;;;;;;50.25;30.65;;;;;;;2.37;78.89;100594.41;5010435;28;20492;-76
2021/12/06 10:04:53;;;;;;;48.65;30.70;;;;;;;2.52;78.90;100594.84;5008399;28;20029;-77
2021/12/06 10:07:19;;;;;;;49.40;31.20;;;;;;;2.55;79.03;100592.31;5010474;28;20562;-78
2021/12/06 10:09:45;;;;;;;51.25;30.50;;;;;;;2.60;79.04;100587.22;5009308;28;20081;-76
2021/12/06 10:12:13;;;;;;;46.70;30.13;;;;;;;2.52;78.57;100594.84;4999412;28;20069;-76
2021/12/06 10:14:38;;;;;;;47.65;29.38;;;;;;;2.57;78.62;100598.44;5012413;28;20069;-77
2021/12/06 10:17:05;;;;;;;47.25;30.08;;;;;;;2.60;77.86;100595.94;5013202;28;20072;-77
2021/12/06 10:19:32;;;;;;;45.80;29.15;;;;;;;2.48;78.11;100594.69;5013850;28;20022;-77
2021/12/06 10:21:57;;;;;;;48.22;31.02;;;;;;;2.47;78.60;100596.44;4996706;28;20061;-78
2021/12/06 10:24:26;;;;;;;52.92;30.75;;;;;;;2.48;78.16;100600.78;5013796;28;20057;-78
2021/12/06 10:27:11;;;;;;;48.03;29.20;;;;;;;2.54;78.53;100593.16;5013761;28;20419;-77
2021/12/06 10:29:44;;;;;;;49.33;30.33;;;;;;;2.63;78.07;100595.13;5013013;28;20492;-76
2021/12/06 10:32:24;;;;;;;47.70;29.13;;;;;;;2.59;77.91;100594.16;5014073;28;20038;-77
2021/12/06 10:34:54;;;;;;;42.90;27.58;;;;;;;2.76;78.50;100597.22;5010036;28;20042;-77
2021/12/06 10:37:34;;;;;;;45.88;28.48;;;;;;;2.90;77.90;100600.19;5013075;28;21267;-77
2021/12/06 10:40:01;;;;;;;47.65;31.20;;;;;;;2.99;77.03;100599.56;5012158;28;20124;-77
2021/12/06 10:42:34;;;;;;;50.67;28.73;;;;;;;2.97;76.58;100596.00;5013403;28;20042;-77
2021/12/06 10:45:10;;;;;;;52.35;30.70;;;;;;;2.91;77.23;100596.75;5013350;28;20088;-77
2021/12/06 10:47:36;;;;;;;43.95;28.58;;;;;;;2.83;78.11;100600.88;5009205;28;20041;-77
2021/12/06 10:50:12;;;;;;;46.65;28.88;;;;;;;2.84;77.26;100598.28;5013303;28;20034;-77
2021/12/06 10:52:51;;;;;;;48.95;30.13;;;;;;;2.80;77.12;100592.94;5013985;28;20042;-77
2021/12/06 10:55:18;;;;;;;51.80;29.35;;;;;;;2.81;77.20;100593.00;5013522;28;20041;-77
2021/12/06 10:57:49;;;;;;;46.70;28.25;;;;;;;2.76;77.65;100597.22;5013603;28;20125;-77
2021/12/06 11:00:40;;;;;;;43.20;26.92;;;;;;;2.86;77.60;100587.91;5012885;28;20042;-75
2021/12/06 11:03:25;;;;;;;46.08;29.05;;;;;;;2.95;77.29;100589.88;5013011;28;20049;-76
2021/12/06 11:06:00;;;;;;;51.25;31.38;;;;;;;2.96;77.02;100586.41;5012690;28;20072;-75
2021/12/06 11:08:27;;;;;;;56.72;33.42;;;;;;;2.79;76.65;100599.03;5012783;28;20519;-74
2021/12/06 11:11:02;;;;;;;57.50;36.22;;;;;;;2.74;77.34;100585.84;5013321;28;20076;-75
2021/12/06 11:13:34;;;;;;;48.03;30.23;;;;;;;2.82;76.07;100586.06;5012314;28;20044;-75
2021/12/06 11:16:08;;;;;;;49.25;30.13;;;;;;;2.79;76.31;100586.88;5012882;28;20057;-75
2021/12/06 11:18:36;;;;;;;48.60;29.50;;;;;;;2.76;76.54;100580.69;5013629;28;20030;-75
2021/12/06 11:21:04;;;;;;;50.28;28.45;;;;;;;2.73;77.55;100584.09;5021475;28;20412;-75
2021/12/06 11:23:29;;;;;;;44.25;27.50;;;;;;;2.80;77.32;100579.91;5021187;28;20045;-75
2021/12/06 11:26:03;;;;;;;44.40;26.85;;;;;;;2.84;76.75;100577.44;5013486;28;20041;-75
2021/12/06 11:28:31;;;;;;;45.15;28.30;;;;;;;2.95;77.03;100579.44;5008601;28;20042;-77
2021/12/06 11:31:04;;;;;;;43.97;27.90;;;;;;;3.03;76.56;100584.00;5009353;28;20038;-76
2021/12/06 11:33:30;;;;;;;;;;;;;;;3.03;76.36;100584.00;5010485;28;20038;-77
2021/12/06 11:35:56;;;;;;;44.25;26.33;;;;;;;3.08;76.50;100577.19;5012775;28;19959;-77